sensor_id;sensor_type;location;lat;lon;timestamp;temperature;humidity
28763;DHT22;15918;51.270;6.522;2023-08-01T00:00:04;21.00;76.20
28763;DHT22;15918;51.270;6.522;2023-08-01T00:02:32;21.00;76.00
28763;DHT22;15918;51.270;6.522;2023-08-01T00:04:58;21.00;76.10
28763;DHT22;15918;51.270;6.522;2023-08-01T00:07:28;21.00;76.10
28763;DHT22;15918;51.270;6.522;2023-08-01T00:09:53;21.00;76.30
28763;DHT22;15918;51.270;6.522;2023-08-01T00:12:19;21.00;75.80
28763;DHT22;15918;51.270;6.522;2023-08-01T00:14:45;21.00;76.10
28763;DHT22;15918;51.270;6.522;2023-08-01T00:17:11;21.00;76.20
28763;DHT22;15918;51.270;6.522;2023-08-01T00:19:37;21.00;76.40
28763;DHT22;15918;51.270;6.522;2023-08-01T00:22:03;21.00;76.30
28763;DHT22;15918;51.270;6.522;2023-08-01T00:24:28;21.00;76.40
28763;DHT22;15918;51.270;6.522;2023-08-01T00:26:54;21.00;76.40
28763;DHT22;15918;51.270;6.522;2023-08-01T00:29:21;21.00;76.40
28763;DHT22;15918;51.270;6.522;2023-08-01T00:31:47;21.00;76.50
28763;DHT22;15918;51.270;6.522;2023-08-01T00:34:12;21.00;76.50
28763;DHT22;15918;51.270;6.522;2023-08-01T00:36:38;21.00;76.50
28763;DHT22;15918;51.270;6.522;2023-08-01T00:39:04;20.90;76.50
28763;DHT22;15918;51.270;6.522;2023-08-01T00:41:29;21.00;76.70
28763;DHT22;15918;51.270;6.522;2023-08-01T00:43:55;21.00;76.70
28763;DHT22;15918;51.270;6.522;2023-08-01T00:46:20;21.00;76.70
28763;DHT22;15918;51.270;6.522;2023-08-01T00:48:46;21.00;76.70
28763;DHT22;15918;51.270;6.522;2023-08-01T00:51:13;21.00;76.70
28763;DHT22;15918;51.270;6.522;2023-08-01T00:53:39;21.00;76.70
28763;DHT22;15918;51.270;6.522;2023-08-01T00:56:05;21.00;76.70
28763;DHT22;15918;51.270;6.522;2023-08-01T00:58:31;21.00;76.80
28763;DHT22;15918;51.270;6.522;2023-08-01T01:00:56;21.00;76.70
28763;DHT22;15918;51.270;6.522;2023-08-01T01:03:22;21.00;76.70
28763;DHT22;15918;51.270;6.522;2023-08-01T01:06:06;21.00;76.70
28763;DHT22;15918;51.270;6.522;2023-08-01T01:08:34;21.00;76.70
28763;DHT22;15918;51.270;6.522;2023-08-01T01:11:00;20.90;76.80
28763;DHT22;15918;51.270;6.522;2023-08-01T01:13:25;20.90;76.80
28763;DHT22;15918;51.270;6.522;2023-08-01T01:15:51;20.90;76.90
28763;DHT22;15918;51.270;6.522;2023-08-01T01:18:16;20.90;76.70
28763;DHT22;15918;51.270;6.522;2023-08-01T01:20:42;20.90;76.80
28763;DHT22;15918;51.270;6.522;2023-08-01T01:23:09;20.90;76.80
28763;DHT22;15918;51.270;6.522;2023-08-01T01:25:36;20.90;76.80
28763;DHT22;15918;51.270;6.522;2023-08-01T01:28:04;20.90;76.90
28763;DHT22;15918;51.270;6.522;2023-08-01T01:30:32;20.90;76.90
28763;DHT22;15918;51.270;6.522;2023-08-01T01:33:00;20.90;76.80
28763;DHT22;15918;51.270;6.522;2023-08-01T01:35:25;20.90;76.80
28763;DHT22;15918;51.270;6.522;2023-08-01T01:37:51;20.90;77.00
28763;DHT22;15918;51.270;6.522;2023-08-01T01:40:17;20.90;77.00
28763;DHT22;15918;51.270;6.522;2023-08-01T01:42:50;20.90;76.90
28763;DHT22;15918;51.270;6.522;2023-08-01T01:45:18;20.90;76.70
28763;DHT22;15918;51.270;6.522;2023-08-01T01:47:44;20.90;76.80
28763;DHT22;15918;51.270;6.522;2023-08-01T01:50:09;20.90;76.90
28763;DHT22;15918;51.270;6.522;2023-08-01T01:52:35;20.90;76.90
28763;DHT22;15918;51.270;6.522;2023-08-01T01:55:01;20.90;76.80
28763;DHT22;15918;51.270;6.522;2023-08-01T01:57:26;20.90;76.80
28763;DHT22;15918;51.270;6.522;2023-08-01T01:59:52;20.90;76.90
28763;DHT22;15918;51.270;6.522;2023-08-01T02:02:17;20.90;76.80
28763;DHT22;15918;51.270;6.522;2023-08-01T02:04:46;20.90;76.80
28763;DHT22;15918;51.270;6.522;2023-08-01T02:07:12;20.90;76.60
28763;DHT22;15918;51.270;6.522;2023-08-01T02:09:39;20.80;76.30
28763;DHT22;15918;51.270;6.522;2023-08-01T02:12:05;20.80;76.10
28763;DHT22;15918;51.270;6.522;2023-08-01T02:14:31;20.80;76.10
28763;DHT22;15918;51.270;6.522;2023-08-01T02:16:56;20.80;76.00
28763;DHT22;15918;51.270;6.522;2023-08-01T02:19:22;20.80;75.90
28763;DHT22;15918;51.270;6.522;2023-08-01T02:21:47;20.80;75.60
28763;DHT22;15918;51.270;6.522;2023-08-01T02:24:13;20.80;75.70
28763;DHT22;15918;51.270;6.522;2023-08-01T02:26:38;20.80;75.60
28763;DHT22;15918;51.270;6.522;2023-08-01T02:29:04;20.80;75.60
28763;DHT22;15918;51.270;6.522;2023-08-01T02:31:29;20.80;75.50
28763;DHT22;15918;51.270;6.522;2023-08-01T02:33:55;20.80;75.40
28763;DHT22;15918;51.270;6.522;2023-08-01T02:36:20;20.80;75.20
28763;DHT22;15918;51.270;6.522;2023-08-01T02:38:46;20.80;75.00
28763;DHT22;15918;51.270;6.522;2023-08-01T02:41:12;20.80;75.00
28763;DHT22;15918;51.270;6.522;2023-08-01T02:43:37;20.80;74.80
28763;DHT22;15918;51.270;6.522;2023-08-01T02:46:03;20.80;74.90
28763;DHT22;15918;51.270;6.522;2023-08-01T02:48:31;20.80;74.60
28763;DHT22;15918;51.270;6.522;2023-08-01T02:50:57;20.80;74.70
28763;DHT22;15918;51.270;6.522;2023-08-01T02:53:23;20.80;74.70
28763;DHT22;15918;51.270;6.522;2023-08-01T02:55:49;20.70;74.50
28763;DHT22;15918;51.270;6.522;2023-08-01T02:58:15;20.80;74.60
28763;DHT22;15918;51.270;6.522;2023-08-01T03:00:40;20.70;74.50
28763;DHT22;15918;51.270;6.522;2023-08-01T03:03:06;20.70;74.30
28763;DHT22;15918;51.270;6.522;2023-08-01T03:05:32;20.70;74.30
28763;DHT22;15918;51.270;6.522;2023-08-01T03:08:00;20.70;74.30
28763;DHT22;15918;51.270;6.522;2023-08-01T03:10:26;20.70;74.30
28763;DHT22;15918;51.270;6.522;2023-08-01T03:12:51;20.70;74.10
28763;DHT22;15918;51.270;6.522;2023-08-01T03:15:17;20.70;74.20
28763;DHT22;15918;51.270;6.522;2023-08-01T03:17:42;20.70;74.10
28763;DHT22;15918;51.270;6.522;2023-08-01T03:20:08;20.70;74.10
28763;DHT22;15918;51.270;6.522;2023-08-01T03:22:38;20.70;73.90
28763;DHT22;15918;51.270;6.522;2023-08-01T03:25:05;20.70;74.00
28763;DHT22;15918;51.270;6.522;2023-08-01T03:27:36;20.70;74.00
28763;DHT22;15918;51.270;6.522;2023-08-01T03:30:02;20.60;74.00
28763;DHT22;15918;51.270;6.522;2023-08-01T03:32:29;20.60;73.90
28763;DHT22;15918;51.270;6.522;2023-08-01T03:34:55;20.70;74.00
28763;DHT22;15918;51.270;6.522;2023-08-01T03:37:21;20.60;73.80
28763;DHT22;15918;51.270;6.522;2023-08-01T03:39:46;20.60;73.70
28763;DHT22;15918;51.270;6.522;2023-08-01T03:42:12;20.60;73.70
28763;DHT22;15918;51.270;6.522;2023-08-01T03:44:37;20.60;73.60
28763;DHT22;15918;51.270;6.522;2023-08-01T03:47:03;20.60;73.70
28763;DHT22;15918;51.270;6.522;2023-08-01T03:49:29;20.60;73.70
28763;DHT22;15918;51.270;6.522;2023-08-01T03:51:54;20.50;73.60
28763;DHT22;15918;51.270;6.522;2023-08-01T03:54:20;20.60;73.50
28763;DHT22;15918;51.270;6.522;2023-08-01T03:56:45;20.50;73.60
28763;DHT22;15918;51.270;6.522;2023-08-01T03:59:15;20.50;73.50
28763;DHT22;15918;51.270;6.522;2023-08-01T04:01:41;20.50;73.50
28763;DHT22;15918;51.270;6.522;2023-08-01T04:04:08;20.50;74.30
28763;DHT22;15918;51.270;6.522;2023-08-01T04:06:34;20.50;73.50
28763;DHT22;15918;51.270;6.522;2023-08-01T04:08:59;20.50;73.50
28763;DHT22;15918;51.270;6.522;2023-08-01T04:11:26;20.40;73.40
28763;DHT22;15918;51.270;6.522;2023-08-01T04:13:52;20.40;73.40
28763;DHT22;15918;51.270;6.522;2023-08-01T04:16:17;20.50;73.50
28763;DHT22;15918;51.270;6.522;2023-08-01T04:18:43;20.40;73.40
28763;DHT22;15918;51.270;6.522;2023-08-01T04:21:09;20.40;73.40
28763;DHT22;15918;51.270;6.522;2023-08-01T04:23:34;20.40;73.30
28763;DHT22;15918;51.270;6.522;2023-08-01T04:26:00;20.40;73.30
28763;DHT22;15918;51.270;6.522;2023-08-01T04:28:26;20.40;73.30
28763;DHT22;15918;51.270;6.522;2023-08-01T04:30:52;20.40;73.30
28763;DHT22;15918;51.270;6.522;2023-08-01T04:33:18;20.40;73.20
28763;DHT22;15918;51.270;6.522;2023-08-01T04:35:44;20.30;73.20
28763;DHT22;15918;51.270;6.522;2023-08-01T04:38:09;20.40;73.30
28763;DHT22;15918;51.270;6.522;2023-08-01T04:40:36;20.30;73.30
28763;DHT22;15918;51.270;6.522;2023-08-01T04:43:02;20.30;73.20
28763;DHT22;15918;51.270;6.522;2023-08-01T04:45:28;20.30;73.10
28763;DHT22;15918;51.270;6.522;2023-08-01T04:47:53;20.40;73.20
28763;DHT22;15918;51.270;6.522;2023-08-01T04:50:19;20.30;73.10
28763;DHT22;15918;51.270;6.522;2023-08-01T04:52:44;20.30;73.10
28763;DHT22;15918;51.270;6.522;2023-08-01T04:55:10;20.30;73.10
28763;DHT22;15918;51.270;6.522;2023-08-01T04:57:36;20.30;73.10
28763;DHT22;15918;51.270;6.522;2023-08-01T05:00:02;20.30;73.90
28763;DHT22;15918;51.270;6.522;2023-08-01T05:02:28;20.30;73.10
28763;DHT22;15918;51.270;6.522;2023-08-01T05:04:54;20.30;73.10
28763;DHT22;15918;51.270;6.522;2023-08-01T05:07:19;20.30;73.10
28763;DHT22;15918;51.270;6.522;2023-08-01T05:09:45;20.20;73.20
28763;DHT22;15918;51.270;6.522;2023-08-01T05:12:10;20.20;73.40
28763;DHT22;15918;51.270;6.522;2023-08-01T05:14:36;20.20;73.40
28763;DHT22;15918;51.270;6.522;2023-08-01T05:17:02;20.20;73.30
28763;DHT22;15918;51.270;6.522;2023-08-01T05:19:27;20.20;73.50
28763;DHT22;15918;51.270;6.522;2023-08-01T05:21:53;20.20;73.40
28763;DHT22;15918;51.270;6.522;2023-08-01T05:24:18;20.20;73.50
28763;DHT22;15918;51.270;6.522;2023-08-01T05:26:44;20.20;73.30
28763;DHT22;15918;51.270;6.522;2023-08-01T05:29:09;20.20;73.40
28763;DHT22;15918;51.270;6.522;2023-08-01T05:31:35;20.20;73.50
28763;DHT22;15918;51.270;6.522;2023-08-01T05:34:01;20.20;73.50
28763;DHT22;15918;51.270;6.522;2023-08-01T05:36:26;20.20;73.50
28763;DHT22;15918;51.270;6.522;2023-08-01T05:38:52;20.20;73.60
28763;DHT22;15918;51.270;6.522;2023-08-01T05:41:17;20.20;73.70
28763;DHT22;15918;51.270;6.522;2023-08-01T05:43:43;20.30;73.70
28763;DHT22;15918;51.270;6.522;2023-08-01T05:46:08;20.20;73.60
28763;DHT22;15918;51.270;6.522;2023-08-01T05:48:34;20.20;73.50
28763;DHT22;15918;51.270;6.522;2023-08-01T05:51:00;20.20;73.60
28763;DHT22;15918;51.270;6.522;2023-08-01T05:53:25;20.20;73.50
28763;DHT22;15918;51.270;6.522;2023-08-01T05:55:52;20.20;73.60
28763;DHT22;15918;51.270;6.522;2023-08-01T05:58:18;20.20;73.70
28763;DHT22;15918;51.270;6.522;2023-08-01T06:00:43;20.20;73.60
28763;DHT22;15918;51.270;6.522;2023-08-01T06:03:09;20.20;73.60
28763;DHT22;15918;51.270;6.522;2023-08-01T06:05:35;20.20;73.50
28763;DHT22;15918;51.270;6.522;2023-08-01T06:08:01;20.20;73.50
28763;DHT22;15918;51.270;6.522;2023-08-01T06:10:26;20.20;73.40
28763;DHT22;15918;51.270;6.522;2023-08-01T06:12:52;20.20;73.50
28763;DHT22;15918;51.270;6.522;2023-08-01T06:15:17;20.20;73.60
28763;DHT22;15918;51.270;6.522;2023-08-01T06:17:43;20.20;73.60
28763;DHT22;15918;51.270;6.522;2023-08-01T06:20:09;20.20;73.60
28763;DHT22;15918;51.270;6.522;2023-08-01T06:22:35;20.20;73.70
28763;DHT22;15918;51.270;6.522;2023-08-01T06:25:00;20.20;73.60
28763;DHT22;15918;51.270;6.522;2023-08-01T06:27:26;20.20;73.60
28763;DHT22;15918;51.270;6.522;2023-08-01T06:29:52;20.20;73.70
28763;DHT22;15918;51.270;6.522;2023-08-01T06:32:17;20.20;73.70
28763;DHT22;15918;51.270;6.522;2023-08-01T06:34:43;20.20;73.70
28763;DHT22;15918;51.270;6.522;2023-08-01T06:37:08;20.20;73.70
28763;DHT22;15918;51.270;6.522;2023-08-01T06:39:35;20.20;73.70
28763;DHT22;15918;51.270;6.522;2023-08-01T06:42:04;20.20;73.50
28763;DHT22;15918;51.270;6.522;2023-08-01T06:44:30;20.20;73.50
28763;DHT22;15918;51.270;6.522;2023-08-01T06:46:56;20.20;73.60
28763;DHT22;15918;51.270;6.522;2023-08-01T06:49:21;20.20;73.70
28763;DHT22;15918;51.270;6.522;2023-08-01T06:51:47;20.30;73.70
28763;DHT22;15918;51.270;6.522;2023-08-01T06:54:12;20.20;74.50
28763;DHT22;15918;51.270;6.522;2023-08-01T06:56:38;20.20;73.60
28763;DHT22;15918;51.270;6.522;2023-08-01T06:59:04;20.20;73.70
28763;DHT22;15918;51.270;6.522;2023-08-01T07:01:29;20.20;73.80
28763;DHT22;15918;51.270;6.522;2023-08-01T07:03:56;20.20;73.80
28763;DHT22;15918;51.270;6.522;2023-08-01T07:06:23;20.30;73.90
28763;DHT22;15918;51.270;6.522;2023-08-01T07:08:49;20.30;73.90
28763;DHT22;15918;51.270;6.522;2023-08-01T07:11:15;20.30;73.80
28763;DHT22;15918;51.270;6.522;2023-08-01T07:13:40;20.30;73.70
28763;DHT22;15918;51.270;6.522;2023-08-01T07:16:06;20.30;73.60
28763;DHT22;15918;51.270;6.522;2023-08-01T07:18:32;20.30;73.60
28763;DHT22;15918;51.270;6.522;2023-08-01T07:21:04;20.30;73.50
28763;DHT22;15918;51.270;6.522;2023-08-01T07:23:34;20.30;73.30
28763;DHT22;15918;51.270;6.522;2023-08-01T07:26:00;20.30;73.30
28763;DHT22;15918;51.270;6.522;2023-08-01T07:28:26;20.30;73.30
28763;DHT22;15918;51.270;6.522;2023-08-01T07:31:02;20.30;73.40
28763;DHT22;15918;51.270;6.522;2023-08-01T07:33:28;20.30;73.30
28763;DHT22;15918;51.270;6.522;2023-08-01T07:35:54;20.30;73.40
28763;DHT22;15918;51.270;6.522;2023-08-01T07:38:19;20.30;73.30
28763;DHT22;15918;51.270;6.522;2023-08-01T07:40:45;20.40;73.50
28763;DHT22;15918;51.270;6.522;2023-08-01T07:43:11;20.40;73.40
28763;DHT22;15918;51.270;6.522;2023-08-01T07:45:37;20.40;73.50
28763;DHT22;15918;51.270;6.522;2023-08-01T07:48:03;20.40;73.50
28763;DHT22;15918;51.270;6.522;2023-08-01T07:50:29;20.40;73.40
28763;DHT22;15918;51.270;6.522;2023-08-01T07:52:54;20.40;73.40
28763;DHT22;15918;51.270;6.522;2023-08-01T07:55:20;20.50;73.30
28763;DHT22;15918;51.270;6.522;2023-08-01T07:57:47;20.50;73.20
28763;DHT22;15918;51.270;6.522;2023-08-01T08:00:13;20.50;73.10
28763;DHT22;15918;51.270;6.522;2023-08-01T08:02:41;20.50;73.20
28763;DHT22;15918;51.270;6.522;2023-08-01T08:05:07;20.50;73.00
28763;DHT22;15918;51.270;6.522;2023-08-01T08:07:33;20.50;72.90
28763;DHT22;15918;51.270;6.522;2023-08-01T08:09:58;20.50;72.70
28763;DHT22;15918;51.270;6.522;2023-08-01T08:12:24;20.50;72.50
28763;DHT22;15918;51.270;6.522;2023-08-01T08:14:50;20.50;72.70
28763;DHT22;15918;51.270;6.522;2023-08-01T08:17:15;20.50;73.40
28763;DHT22;15918;51.270;6.522;2023-08-01T08:19:41;20.50;72.50
28763;DHT22;15918;51.270;6.522;2023-08-01T08:22:07;20.60;72.40
28763;DHT22;15918;51.270;6.522;2023-08-01T08:24:32;20.50;72.30
28763;DHT22;15918;51.270;6.522;2023-08-01T08:26:58;20.50;72.30
28763;DHT22;15918;51.270;6.522;2023-08-01T08:29:24;20.50;72.20
28763;DHT22;15918;51.270;6.522;2023-08-01T08:31:50;20.50;72.10
28763;DHT22;15918;51.270;6.522;2023-08-01T08:34:15;20.60;72.00
28763;DHT22;15918;51.270;6.522;2023-08-01T08:36:41;20.60;72.00
28763;DHT22;15918;51.270;6.522;2023-08-01T08:39:07;20.60;72.80
28763;DHT22;15918;51.270;6.522;2023-08-01T08:41:42;20.60;72.10
28763;DHT22;15918;51.270;6.522;2023-08-01T08:44:10;20.60;72.00
28763;DHT22;15918;51.270;6.522;2023-08-01T08:46:43;20.60;72.00
28763;DHT22;15918;51.270;6.522;2023-08-01T08:49:09;20.60;72.00
28763;DHT22;15918;51.270;6.522;2023-08-01T08:51:36;20.60;72.20
28763;DHT22;15918;51.270;6.522;2023-08-01T08:54:02;20.60;72.20
28763;DHT22;15918;51.270;6.522;2023-08-01T08:56:28;20.60;72.20
28763;DHT22;15918;51.270;6.522;2023-08-01T08:58:54;20.70;72.30
28763;DHT22;15918;51.270;6.522;2023-08-01T09:01:20;20.70;72.20
28763;DHT22;15918;51.270;6.522;2023-08-01T09:03:45;20.80;72.10
28763;DHT22;15918;51.270;6.522;2023-08-01T09:06:16;20.80;72.00
28763;DHT22;15918;51.270;6.522;2023-08-01T09:08:51;20.80;71.70
28763;DHT22;15918;51.270;6.522;2023-08-01T09:11:20;20.80;71.70
28763;DHT22;15918;51.270;6.522;2023-08-01T09:13:45;20.80;71.80
28763;DHT22;15918;51.270;6.522;2023-08-01T09:16:12;20.80;71.70
28763;DHT22;15918;51.270;6.522;2023-08-01T09:18:49;20.90;71.80
28763;DHT22;15918;51.270;6.522;2023-08-01T09:21:14;20.90;71.50
28763;DHT22;15918;51.270;6.522;2023-08-01T09:23:42;20.90;71.80
28763;DHT22;15918;51.270;6.522;2023-08-01T09:26:19;20.90;71.70
28763;DHT22;15918;51.270;6.522;2023-08-01T09:28:58;21.00;71.60
28763;DHT22;15918;51.270;6.522;2023-08-01T09:31:34;21.00;71.30
28763;DHT22;15918;51.270;6.522;2023-08-01T09:34:01;21.00;71.30
28763;DHT22;15918;51.270;6.522;2023-08-01T09:36:29;21.00;71.20
28763;DHT22;15918;51.270;6.522;2023-08-01T09:39:00;21.00;71.10
28763;DHT22;15918;51.270;6.522;2023-08-01T09:41:26;21.10;70.90
28763;DHT22;15918;51.270;6.522;2023-08-01T09:43:51;21.10;70.90
28763;DHT22;15918;51.270;6.522;2023-08-01T09:46:17;21.10;70.60
28763;DHT22;15918;51.270;6.522;2023-08-01T09:48:43;21.10;70.40
28763;DHT22;15918;51.270;6.522;2023-08-01T09:51:13;21.10;70.20
28763;DHT22;15918;51.270;6.522;2023-08-01T09:53:53;21.10;70.10
28763;DHT22;15918;51.270;6.522;2023-08-01T09:56:26;21.10;69.80
28763;DHT22;15918;51.270;6.522;2023-08-01T09:58:54;21.10;69.80
28763;DHT22;15918;51.270;6.522;2023-08-01T10:01:24;21.10;69.80
28763;DHT22;15918;51.270;6.522;2023-08-01T10:03:52;21.20;69.70
28763;DHT22;15918;51.270;6.522;2023-08-01T10:06:20;21.20;69.60
28763;DHT22;15918;51.270;6.522;2023-08-01T10:08:47;21.20;69.50
28763;DHT22;15918;51.270;6.522;2023-08-01T10:11:22;21.20;69.30
28763;DHT22;15918;51.270;6.522;2023-08-01T10:13:48;21.30;69.00
28763;DHT22;15918;51.270;6.522;2023-08-01T10:16:15;21.30;69.00
28763;DHT22;15918;51.270;6.522;2023-08-01T10:18:41;21.30;68.80
28763;DHT22;15918;51.270;6.522;2023-08-01T10:21:10;21.30;68.80
28763;DHT22;15918;51.270;6.522;2023-08-01T10:23:37;21.30;68.70
28763;DHT22;15918;51.270;6.522;2023-08-01T10:26:05;21.30;68.60
28763;DHT22;15918;51.270;6.522;2023-08-01T10:28:36;21.30;68.50
28763;DHT22;15918;51.270;6.522;2023-08-01T10:31:14;21.30;68.20
28763;DHT22;15918;51.270;6.522;2023-08-01T10:33:49;21.30;67.90
28763;DHT22;15918;51.270;6.522;2023-08-01T10:36:23;21.30;67.90
28763;DHT22;15918;51.270;6.522;2023-08-01T10:38:59;21.30;67.90
28763;DHT22;15918;51.270;6.522;2023-08-01T10:41:29;21.30;67.90
28763;DHT22;15918;51.270;6.522;2023-08-01T10:44:14;21.30;68.00
28763;DHT22;15918;51.270;6.522;2023-08-01T10:47:04;21.40;67.80
28763;DHT22;15918;51.270;6.522;2023-08-01T10:49:39;21.40;68.00
28763;DHT22;15918;51.270;6.522;2023-08-01T10:52:20;21.40;68.10
28763;DHT22;15918;51.270;6.522;2023-08-01T10:54:46;21.40;67.90
28763;DHT22;15918;51.270;6.522;2023-08-01T10:57:18;21.40;68.20
28763;DHT22;15918;51.270;6.522;2023-08-01T10:59:44;21.40;68.20
28763;DHT22;15918;51.270;6.522;2023-08-01T11:02:10;21.40;68.30
28763;DHT22;15918;51.270;6.522;2023-08-01T11:04:36;21.40;67.90
28763;DHT22;15918;51.270;6.522;2023-08-01T11:07:04;21.50;67.50
28763;DHT22;15918;51.270;6.522;2023-08-01T11:09:30;21.50;67.30
28763;DHT22;15918;51.270;6.522;2023-08-01T11:11:58;21.50;66.80
28763;DHT22;15918;51.270;6.522;2023-08-01T11:14:28;21.50;66.40
28763;DHT22;15918;51.270;6.522;2023-08-01T11:16:56;21.50;66.20
28763;DHT22;15918;51.270;6.522;2023-08-01T11:19:29;21.50;66.10
28763;DHT22;15918;51.270;6.522;2023-08-01T11:21:56;21.50;65.80
28763;DHT22;15918;51.270;6.522;2023-08-01T11:24:24;21.50;65.80
28763;DHT22;15918;51.270;6.522;2023-08-01T11:26:51;21.50;65.70
28763;DHT22;15918;51.270;6.522;2023-08-01T11:29:18;21.50;65.60
28763;DHT22;15918;51.270;6.522;2023-08-01T11:31:57;21.50;65.80
28763;DHT22;15918;51.270;6.522;2023-08-01T11:34:23;21.50;66.00
28763;DHT22;15918;51.270;6.522;2023-08-01T11:36:50;21.40;66.50
28763;DHT22;15918;51.270;6.522;2023-08-01T11:39:16;21.50;66.90
28763;DHT22;15918;51.270;6.522;2023-08-01T11:41:43;21.40;66.90
28763;DHT22;15918;51.270;6.522;2023-08-01T11:44:09;21.40;67.00
28763;DHT22;15918;51.270;6.522;2023-08-01T11:46:38;21.40;67.00
28763;DHT22;15918;51.270;6.522;2023-08-01T11:49:07;21.40;67.10
28763;DHT22;15918;51.270;6.522;2023-08-01T11:51:43;21.40;67.30
28763;DHT22;15918;51.270;6.522;2023-08-01T11:54:10;21.40;67.10
28763;DHT22;15918;51.270;6.522;2023-08-01T11:56:37;21.40;67.30
28763;DHT22;15918;51.270;6.522;2023-08-01T11:59:15;21.40;67.10
28763;DHT22;15918;51.270;6.522;2023-08-01T12:01:43;21.40;67.00
28763;DHT22;15918;51.270;6.522;2023-08-01T12:04:09;21.40;66.70
28763;DHT22;15918;51.270;6.522;2023-08-01T12:06:35;21.40;66.30
28763;DHT22;15918;51.270;6.522;2023-08-01T12:09:10;21.40;66.20
28763;DHT22;15918;51.270;6.522;2023-08-01T12:11:36;21.40;66.00
28763;DHT22;15918;51.270;6.522;2023-08-01T12:16:29;21.40;65.70
28763;DHT22;15918;51.270;6.522;2023-08-01T12:18:56;21.40;65.60
28763;DHT22;15918;51.270;6.522;2023-08-01T12:21:22;21.40;65.30
28763;DHT22;15918;51.270;6.522;2023-08-01T12:23:48;21.40;65.40
28763;DHT22;15918;51.270;6.522;2023-08-01T12:26:13;21.40;65.10
28763;DHT22;15918;51.270;6.522;2023-08-01T12:28:39;21.40;65.30
28763;DHT22;15918;51.270;6.522;2023-08-01T12:31:04;21.40;65.60
28763;DHT22;15918;51.270;6.522;2023-08-01T12:33:31;21.40;65.80
28763;DHT22;15918;51.270;6.522;2023-08-01T12:35:58;21.40;66.00
28763;DHT22;15918;51.270;6.522;2023-08-01T12:38:23;21.40;66.10
28763;DHT22;15918;51.270;6.522;2023-08-01T12:40:49;21.50;66.30
28763;DHT22;15918;51.270;6.522;2023-08-01T12:43:15;21.50;66.30
28763;DHT22;15918;51.270;6.522;2023-08-01T12:45:42;21.50;66.30
28763;DHT22;15918;51.270;6.522;2023-08-01T12:48:07;21.50;66.30
28763;DHT22;15918;51.270;6.522;2023-08-01T12:50:33;21.50;66.00
28763;DHT22;15918;51.270;6.522;2023-08-01T12:52:58;21.60;65.80
28763;DHT22;15918;51.270;6.522;2023-08-01T12:55:24;21.60;65.60
28763;DHT22;15918;51.270;6.522;2023-08-01T12:57:50;21.60;65.40
28763;DHT22;15918;51.270;6.522;2023-08-01T13:00:16;21.60;65.30
28763;DHT22;15918;51.270;6.522;2023-08-01T13:02:41;21.70;65.40
28763;DHT22;15918;51.270;6.522;2023-08-01T13:05:07;21.70;65.40
28763;DHT22;15918;51.270;6.522;2023-08-01T13:07:33;21.70;65.40
28763;DHT22;15918;51.270;6.522;2023-08-01T13:10:02;21.70;65.40
28763;DHT22;15918;51.270;6.522;2023-08-01T13:12:28;21.70;65.50
28763;DHT22;15918;51.270;6.522;2023-08-01T13:14:54;21.80;65.30
28763;DHT22;15918;51.270;6.522;2023-08-01T13:17:19;21.70;64.90
28763;DHT22;15918;51.270;6.522;2023-08-01T13:19:45;21.80;65.00
28763;DHT22;15918;51.270;6.522;2023-08-01T13:22:11;21.80;64.90
28763;DHT22;15918;51.270;6.522;2023-08-01T13:24:36;21.80;64.90
28763;DHT22;15918;51.270;6.522;2023-08-01T13:27:02;21.80;64.70
28763;DHT22;15918;51.270;6.522;2023-08-01T13:29:28;21.80;64.70
28763;DHT22;15918;51.270;6.522;2023-08-01T13:31:53;21.80;64.60
28763;DHT22;15918;51.270;6.522;2023-08-01T13:34:19;21.80;64.30
28763;DHT22;15918;51.270;6.522;2023-08-01T13:36:45;21.80;64.00
28763;DHT22;15918;51.270;6.522;2023-08-01T13:39:10;21.90;64.00
28763;DHT22;15918;51.270;6.522;2023-08-01T13:41:36;21.90;63.90
28763;DHT22;15918;51.270;6.522;2023-08-01T13:44:01;21.90;63.80
28763;DHT22;15918;51.270;6.522;2023-08-01T13:46:27;21.90;63.50
28763;DHT22;15918;51.270;6.522;2023-08-01T13:48:53;21.90;63.30
28763;DHT22;15918;51.270;6.522;2023-08-01T13:51:18;21.90;63.10
28763;DHT22;15918;51.270;6.522;2023-08-01T13:53:44;21.90;63.10
28763;DHT22;15918;51.270;6.522;2023-08-01T13:56:10;22.00;63.10
28763;DHT22;15918;51.270;6.522;2023-08-01T13:58:37;22.00;63.00
28763;DHT22;15918;51.270;6.522;2023-08-01T14:01:05;22.00;62.80
28763;DHT22;15918;51.270;6.522;2023-08-01T14:03:36;22.00;62.90
28763;DHT22;15918;51.270;6.522;2023-08-01T14:06:09;22.00;63.00
28763;DHT22;15918;51.270;6.522;2023-08-01T14:08:36;22.00;62.70
28763;DHT22;15918;51.270;6.522;2023-08-01T14:11:04;22.00;62.80
28763;DHT22;15918;51.270;6.522;2023-08-01T14:13:30;22.00;62.60
28763;DHT22;15918;51.270;6.522;2023-08-01T14:15:55;22.00;62.60
28763;DHT22;15918;51.270;6.522;2023-08-01T14:18:21;22.00;62.50
28763;DHT22;15918;51.270;6.522;2023-08-01T14:20:46;22.10;62.50
28763;DHT22;15918;51.270;6.522;2023-08-01T14:23:12;22.10;62.50
28763;DHT22;15918;51.270;6.522;2023-08-01T14:25:38;22.10;62.30
28763;DHT22;15918;51.270;6.522;2023-08-01T14:28:04;22.00;62.00
28763;DHT22;15918;51.270;6.522;2023-08-01T14:30:29;22.00;62.20
28763;DHT22;15918;51.270;6.522;2023-08-01T14:33:06;22.00;62.30
28763;DHT22;15918;51.270;6.522;2023-08-01T14:35:36;22.10;62.40
28763;DHT22;15918;51.270;6.522;2023-08-01T14:38:03;22.10;62.70
28763;DHT22;15918;51.270;6.522;2023-08-01T14:40:29;22.00;62.70
28763;DHT22;15918;51.270;6.522;2023-08-01T14:42:55;22.10;62.80
28763;DHT22;15918;51.270;6.522;2023-08-01T14:45:21;22.10;62.90
28763;DHT22;15918;51.270;6.522;2023-08-01T14:47:47;22.10;63.00
28763;DHT22;15918;51.270;6.522;2023-08-01T14:50:14;22.10;62.70
28763;DHT22;15918;51.270;6.522;2023-08-01T14:52:40;22.10;62.60
28763;DHT22;15918;51.270;6.522;2023-08-01T14:55:07;22.20;62.40
28763;DHT22;15918;51.270;6.522;2023-08-01T14:57:32;22.20;62.40
28763;DHT22;15918;51.270;6.522;2023-08-01T14:59:58;22.10;62.20
28763;DHT22;15918;51.270;6.522;2023-08-01T15:02:24;22.20;62.00
28763;DHT22;15918;51.270;6.522;2023-08-01T15:04:54;22.10;61.90
28763;DHT22;15918;51.270;6.522;2023-08-01T15:07:24;22.20;61.80
28763;DHT22;15918;51.270;6.522;2023-08-01T15:09:51;22.20;61.80
28763;DHT22;15918;51.270;6.522;2023-08-01T15:12:18;22.20;61.50
28763;DHT22;15918;51.270;6.522;2023-08-01T15:14:49;22.20;61.60
28763;DHT22;15918;51.270;6.522;2023-08-01T15:17:15;22.20;61.70
28763;DHT22;15918;51.270;6.522;2023-08-01T15:19:41;22.20;61.40
28763;DHT22;15918;51.270;6.522;2023-08-01T15:22:06;22.20;61.20
28763;DHT22;15918;51.270;6.522;2023-08-01T15:24:32;22.20;60.80
28763;DHT22;15918;51.270;6.522;2023-08-01T15:26:57;22.20;60.70
28763;DHT22;15918;51.270;6.522;2023-08-01T15:29:23;22.20;60.60